Time;durP1;ratioP1;P1;durP2;ratioP2;P2;SDS_P1;SDS_P2;PMS_P1;PMS_P2;Temp;Humidity;BMP_temperature;BMP_pressure;BME280_temperature;BME280_humidity;BME280_pressure;Samples;Min_cycle;Max_cycle;Signal;HPM_P1;HPM_P2
2023/05/09 00:00:05;;;;;;;9.33;8.13;;;19.60;90.70;;;;;;5116331;28;20192;-64
2023/05/09 00:02:33;;;;;;;9.93;8.93;;;19.50;90.70;;;;;;5118404;28;20199;-64
2023/05/09 00:05:01;;;;;;;8.87;8.07;;;19.60;90.70;;;;;;5118981;28;20260;-64
2023/05/09 00:07:28;;;;;;;9.23;8.30;;;19.50;90.80;;;;;;5117595;28;20215;-64
2023/05/09 00:09:55;;;;;;;8.90;8.00;;;19.50;90.80;;;;;;5113364;28;20230;-64
2023/05/09 00:12:22;;;;;;;9.53;8.63;;;19.50;90.80;;;;;;5113645;28;20194;-64
2023/05/09 00:14:50;;;;;;;8.70;7.90;;;19.50;90.90;;;;;;5111318;28;20203;-64
2023/05/09 00:17:17;;;;;;;10.73;8.47;;;19.50;90.90;;;;;;5112338;28;20540;-64
2023/05/09 00:19:44;;;;;;;12.07;8.50;;;19.40;90.90;;;;;;5111998;28;20196;-64
2023/05/09 00:22:11;;;;;;;9.27;8.37;;;19.50;90.90;;;;;;5117283;28;20264;-64
2023/05/09 00:24:38;;;;;;;9.77;8.77;;;19.50;91.00;;;;;;5108987;28;20556;-64
2023/05/09 00:27:05;;;;;;;13.00;8.97;;;19.50;91.00;;;;;;5116009;28;20533;-64
2023/05/09 00:29:32;;;;;;;10.30;8.10;;;19.50;90.90;;;;;;5113295;28;20221;-64
2023/05/09 00:31:59;;;;;;;10.00;8.70;;;19.50;90.90;;;;;;5116693;28;20630;-64
2023/05/09 00:34:26;;;;;;;9.97;9.03;;;19.50;90.80;;;;;;5117706;28;20196;-64
2023/05/09 00:36:53;;;;;;;7.73;6.70;;;19.50;90.80;;;;;;5116752;27;20272;-64
2023/05/09 00:39:20;;;;;;;8.00;6.70;;;19.50;90.70;;;;;;5118233;27;20277;-64
2023/05/09 00:41:47;;;;;;;9.03;8.13;;;19.40;90.60;;;;;;5115305;27;20205;-64
2023/05/09 00:44:14;;;;;;;7.77;6.97;;;19.40;90.40;;;;;;5114525;27;20204;-64
2023/05/09 00:46:42;;;;;;;6.40;5.80;;;19.40;90.30;;;;;;5111576;27;20241;-64
2023/05/09 00:49:09;;;;;;;7.10;6.20;;;19.40;90.20;;;;;;5114138;28;20533;-64
2023/05/09 00:51:38;;;;;;;8.27;5.40;;;19.40;90.20;;;;;;5113481;27;20205;-64
2023/05/09 00:54:05;;;;;;;5.47;4.73;;;19.40;90.00;;;;;;5115878;27;20853;-64
2023/05/09 00:56:35;;;;;;;7.83;4.93;;;19.30;89.30;;;;;;5112146;27;20208;-64
2023/05/09 00:59:02;;;;;;;6.37;5.27;;;19.30;89.10;;;;;;5137466;27;20206;-64
2023/05/09 01:01:29;;;;;;;6.53;4.23;;;19.20;89.20;;;;;;5122447;27;20206;-64
2023/05/09 01:03:57;;;;;;;5.17;4.43;;;19.20;89.30;;;;;;5117426;27;20546;-64
2023/05/09 01:06:43;;;;;;;4.93;4.43;;;19.20;89.10;;;;;;5138748;27;20199;-64
2023/05/09 01:09:40;;;;;;;8.77;4.50;;;19.10;88.90;;;;;;5121136;27;20202;-64
2023/05/09 01:12:22;;;;;;;5.97;5.20;;;19.10;88.90;;;;;;5113893;27;20536;-64
2023/05/09 01:15:12;;;;;;;8.27;5.00;;;19.00;88.80;;;;;;5117225;27;20201;-64
2023/05/09 01:17:52;;;;;;;8.90;5.00;;;19.00;88.90;;;;;;5124051;27;20651;-64
2023/05/09 01:20:28;;;;;;;7.27;5.47;;;19.00;89.10;;;;;;5118262;27;20210;-64
2023/05/09 01:23:21;;;;;;;5.90;5.27;;;19.00;89.30;;;;;;5115566;27;20578;-64
2023/05/09 01:26:07;;;;;;;6.57;4.87;;;18.90;89.40;;;;;;5109848;27;20196;-64
2023/05/09 01:28:46;;;;;;;10.17;5.37;;;18.90;89.50;;;;;;5112271;27;20219;-64
2023/05/09 01:31:15;;;;;;;5.57;5.07;;;18.90;89.40;;;;;;5124998;27;20287;-64
2023/05/09 01:33:46;;;;;;;7.20;4.93;;;18.90;89.30;;;;;;5114474;27;20201;-64
2023/05/09 01:36:16;;;;;;;5.53;5.03;;;18.90;89.50;;;;;;5114911;27;20551;-64
2023/05/09 01:38:47;;;;;;;10.07;5.00;;;18.80;90.10;;;;;;5112217;27;20195;-64
2023/05/09 01:41:16;;;;;;;8.30;5.40;;;18.80;89.90;;;;;;5119638;27;20202;-64
2023/05/09 01:43:46;;;;;;;5.43;4.93;;;18.80;90.00;;;;;;5116426;27;20282;-64
2023/05/09 01:46:15;;;;;;;7.70;5.43;;;18.80;90.10;;;;;;5120423;27;20243;-64
2023/05/09 01:48:44;;;;;;;5.73;5.17;;;18.80;90.10;;;;;;5122609;27;20228;-64
2023/05/09 01:51:13;;;;;;;8.53;5.20;;;18.80;90.20;;;;;;5122851;27;20240;-64
2023/05/09 01:53:42;;;;;;;5.23;4.73;;;18.80;90.20;;;;;;5121999;27;20199;-64
2023/05/09 01:56:09;;;;;;;7.00;5.13;;;18.80;90.20;;;;;;5119196;27;20206;-64
2023/05/09 01:58:39;;;;;;;7.00;5.47;;;18.80;90.20;;;;;;5117467;27;20628;-64
2023/05/09 02:01:06;;;;;;;6.80;5.80;;;18.70;90.20;;;;;;5113718;27;20515;-64
2023/05/09 02:03:36;;;;;;;6.00;5.20;;;18.70;90.30;;;;;;5117267;27;20208;-64
2023/05/09 02:06:04;;;;;;;8.70;5.80;;;18.70;90.30;;;;;;5114524;27;20261;-64
2023/05/09 02:08:32;;;;;;;6.73;5.80;;;18.70;90.20;;;;;;5122397;27;20215;-64
2023/05/09 02:10:59;;;;;;;9.23;6.27;;;18.70;90.50;;;;;;5119674;27;20203;-64
2023/05/09 02:13:26;;;;;;;6.13;5.53;;;18.70;90.20;;;;;;5121079;27;20222;-64
2023/05/09 02:15:54;;;;;;;6.60;6.00;;;18.60;90.20;;;;;;5107944;28;20283;-64
2023/05/09 02:18:21;;;;;;;10.03;5.50;;;18.60;90.30;;;;;;5116403;27;20239;-64
2023/05/09 02:20:48;;;;;;;8.03;5.63;;;18.50;90.30;;;;;;5120548;27;20237;-64
2023/05/09 02:23:17;;;;;;;6.07;5.47;;;18.50;90.40;;;;;;5116257;27;20206;-64
2023/05/09 02:25:45;;;;;;;6.87;6.17;;;18.50;90.40;;;;;;5104069;27;20231;-64
2023/05/09 02:28:13;;;;;;;7.27;5.70;;;18.50;90.30;;;;;;5116344;27;20705;-64
2023/05/09 02:30:43;;;;;;;6.50;5.60;;;18.40;90.30;;;;;;5117536;27;20283;-64
2023/05/09 02:33:12;;;;;;;6.77;5.47;;;18.40;90.20;;;;;;5131641;27;20218;-64
2023/05/09 02:35:42;;;;;;;7.47;6.03;;;18.40;90.10;;;;;;5117925;27;20186;-64
2023/05/09 02:38:13;;;;;;;6.03;5.50;;;18.40;90.00;;;;;;5114051;27;20215;-64
2023/05/09 02:40:42;;;;;;;6.13;5.53;;;18.30;90.00;;;;;;5130301;27;20196;-64
2023/05/09 02:43:09;;;;;;;8.50;5.67;;;18.30;90.10;;;;;;5117946;27;20207;-64
2023/05/09 02:45:36;;;;;;;6.03;5.43;;;18.30;90.20;;;;;;5116691;27;20267;-64
2023/05/09 02:48:03;;;;;;;7.00;6.03;;;18.30;90.30;;;;;;5119283;27;20223;-64
2023/05/09 02:50:34;;;;;;;6.33;5.73;;;18.30;90.30;;;;;;5112415;27;20191;-64
2023/05/09 02:53:01;;;;;;;9.07;6.47;;;18.30;90.30;;;;;;5116513;27;20259;-64
2023/05/09 02:55:28;;;;;;;6.83;5.87;;;18.20;90.30;;;;;;5117179;27;20207;-64
2023/05/09 02:57:55;;;;;;;8.17;5.47;;;18.20;90.20;;;;;;5113507;27;20230;-64
2023/05/09 03:00:38;;;;;;;8.47;6.70;;;18.10;90.20;;;;;;5113150;27;20204;-64
2023/05/09 03:03:06;;;;;;;7.33;6.43;;;18.10;90.20;;;;;;5114443;27;20202;-64
2023/05/09 03:05:33;;;;;;;8.17;5.93;;;18.10;90.10;;;;;;5112247;27;20201;-64
2023/05/09 03:08:00;;;;;;;7.47;6.53;;;18.10;90.00;;;;;;5114406;27;20549;-64
2023/05/09 03:10:27;;;;;;;8.73;7.17;;;18.00;90.00;;;;;;5102205;28;20506;-64
2023/05/09 03:12:54;;;;;;;7.63;6.93;;;18.00;89.90;;;;;;5118863;27;20520;-64
2023/05/09 03:15:22;;;;;;;9.57;7.23;;;18.00;89.70;;;;;;5112525;27;20213;-64
2023/05/09 03:17:49;;;;;;;9.43;7.87;;;17.90;89.80;;;;;;5119988;27;20906;-64
2023/05/09 03:20:16;;;;;;;8.00;7.20;;;17.90;90.00;;;;;;5122622;27;20640;-64
2023/05/09 03:22:43;;;;;;;8.73;7.20;;;17.90;90.10;;;;;;5116973;27;20253;-64
2023/05/09 03:25:11;;;;;;;7.63;6.93;;;17.80;90.00;;;;;;5118456;27;20202;-64
2023/05/09 03:27:38;;;;;;;8.20;7.40;;;17.80;90.00;;;;;;5114311;27;20217;-64
2023/05/09 03:30:10;;;;;;;10.37;7.13;;;17.80;90.00;;;;;;5121816;27;20237;-64
2023/05/09 03:32:38;;;;;;;12.93;8.00;;;17.70;89.70;;;;;;5114064;27;20689;-64
2023/05/09 03:35:06;;;;;;;10.60;7.50;;;17.70;89.50;;;;;;5128414;27;20621;-64
2023/05/09 03:37:33;;;;;;;8.43;7.50;;;17.60;89.50;;;;;;5117289;27;20197;-64
2023/05/09 03:40:00;;;;;;;11.13;8.13;;;17.60;89.60;;;;;;5109761;27;20294;-64
2023/05/09 03:42:30;;;;;;;8.77;7.87;;;17.50;89.60;;;;;;5115652;27;20203;-64
2023/05/09 03:45:00;;;;;;;8.37;7.43;;;17.40;89.70;;;;;;5108079;27;20201;-64
2023/05/09 03:47:28;;;;;;;9.50;7.40;;;17.40;90.00;;;;;;5113882;27;20319;-64
2023/05/09 03:49:56;;;;;;;8.17;7.37;;;17.40;90.10;;;;;;5113367;27;20227;-64
2023/05/09 03:52:23;;;;;;;8.17;7.33;;;17.30;90.10;;;;;;5119569;27;20286;-64
2023/05/09 03:54:50;;;;;;;9.37;7.87;;;17.30;90.10;;;;;;5113161;27;20202;-63
2023/05/09 03:57:17;;;;;;;8.90;8.00;;;17.30;90.10;;;;;;5118296;27;20201;-63
2023/05/09 03:59:47;;;;;;;9.30;7.93;;;17.30;90.10;;;;;;5113860;27;20228;-64
2023/05/09 04:02:15;;;;;;;9.67;7.50;;;17.30;90.00;;;;;;5121795;28;20201;-64
2023/05/09 04:04:45;;;;;;;8.60;7.63;;;17.30;90.10;;;;;;5115490;28;20190;-64
2023/05/09 04:07:13;;;;;;;9.03;7.27;;;17.20;90.20;;;;;;5112987;28;20294;-64
2023/05/09 04:09:41;;;;;;;8.33;7.53;;;17.10;90.20;;;;;;5112531;28;20278;-64
2023/05/09 04:12:08;;;;;;;9.17;8.27;;;17.20;90.30;;;;;;5110531;27;20206;-63
2023/05/09 04:14:35;;;;;;;8.30;7.37;;;17.10;90.30;;;;;;5105587;27;20596;-64
2023/05/09 04:17:02;;;;;;;8.30;7.40;;;17.10;90.40;;;;;;5114784;27;20219;-64
2023/05/09 04:19:30;;;;;;;9.57;8.10;;;17.20;90.40;;;;;;5115963;27;20210;-64
2023/05/09 04:21:57;;;;;;;10.10;8.20;;;17.20;90.40;;;;;;5120343;27;20208;-64
2023/05/09 04:24:24;;;;;;;9.70;7.73;;;17.20;90.40;;;;;;5118136;27;20201;-64
2023/05/09 04:26:51;;;;;;;8.73;7.83;;;17.20;90.40;;;;;;5122596;27;20641;-64
2023/05/09 04:29:21;;;;;;;7.93;7.13;;;17.20;90.30;;;;;;5115393;27;20220;-64
2023/05/09 04:31:52;;;;;;;8.67;7.77;;;17.20;90.20;;;;;;5122192;27;20291;-64
2023/05/09 04:34:25;;;;;;;11.33;7.80;;;17.30;90.20;;;;;;5122235;27;20221;-64
2023/05/09 04:36:53;;;;;;;8.70;7.50;;;17.30;90.10;;;;;;5120727;27;20240;-64
2023/05/09 04:39:20;;;;;;;9.77;7.90;;;17.40;90.00;;;;;;5122733;27;20726;-64
2023/05/09 04:42:00;;;;;;;11.13;8.03;;;17.40;89.90;;;;;;5121449;27;20224;-64
2023/05/09 04:44:27;;;;;;;9.33;7.90;;;17.40;89.70;;;;;;5120724;27;20212;-64
2023/05/09 04:46:55;;;;;;;9.90;7.70;;;17.40;89.70;;;;;;5121433;27;20287;-63
2023/05/09 04:49:21;;;;;;;9.23;8.27;;;17.40;89.60;;;;;;5116876;27;20208;-63
2023/05/09 04:51:50;;;;;;;9.53;7.80;;;17.40;89.40;;;;;;5119581;27;20215;-64
2023/05/09 04:54:17;;;;;;;9.60;8.20;;;17.40;89.30;;;;;;5116511;27;20528;-64
2023/05/09 04:56:45;;;;;;;10.17;7.57;;;17.40;89.40;;;;;;5123214;27;20215;-64
2023/05/09 04:59:15;;;;;;;9.60;8.27;;;17.40;89.40;;;;;;5118576;27;20281;-64
2023/05/09 05:01:43;;;;;;;9.90;8.17;;;17.40;90.00;;;;;;5117542;27;20543;-64
2023/05/09 05:04:10;;;;;;;9.93;7.63;;;17.40;89.50;;;;;;5118742;27;20677;-64
2023/05/09 05:06:37;;;;;;;9.10;8.10;;;17.40;89.50;;;;;;5116655;27;20212;-64
2023/05/09 05:09:05;;;;;;;10.30;7.30;;;17.40;89.30;;;;;;5115056;27;20214;-64
2023/05/09 05:11:32;;;;;;;11.27;8.07;;;17.40;89.30;;;;;;5117283;27;20232;-64
2023/05/09 05:14:01;;;;;;;11.17;8.10;;;17.40;89.30;;;;;;5119091;27;20212;-64
2023/05/09 05:16:28;;;;;;;10.37;8.70;;;17.40;89.10;;;;;;5125335;27;20193;-64
2023/05/09 05:18:55;;;;;;;10.23;7.77;;;17.40;88.90;;;;;;5119301;27;20207;-64
2023/05/09 05:21:23;;;;;;;9.50;8.07;;;17.50;88.90;;;;;;5120548;27;20206;-64
2023/05/09 05:23:50;;;;;;;11.83;8.20;;;17.50;88.80;;;;;;5116719;27;20222;-64
2023/05/09 05:26:17;;;;;;;8.33;7.53;;;17.50;88.80;;;;;;5119105;27;20576;-64
2023/05/09 05:28:44;;;;;;;9.60;8.47;;;17.60;88.80;;;;;;5119987;27;20210;-63
2023/05/09 05:31:13;;;;;;;9.00;8.07;;;17.60;88.30;;;;;;5122353;27;20206;-64
2023/05/09 05:33:40;;;;;;;10.20;7.40;;;17.70;88.20;;;;;;5119289;27;20205;-64
2023/05/09 05:36:07;;;;;;;8.60;7.67;;;17.70;88.20;;;;;;5119704;27;20232;-63
2023/05/09 05:38:34;;;;;;;8.47;7.67;;;17.70;88.30;;;;;;5103538;28;20527;-63
2023/05/09 05:41:01;;;;;;;10.47;8.27;;;17.80;88.40;;;;;;5122285;27;20206;-63
2023/05/09 05:43:29;;;;;;;10.23;8.57;;;18.00;88.60;;;;;;5121923;27;20548;-64
2023/05/09 05:45:56;;;;;;;9.17;8.27;;;18.10;88.30;;;;;;5117135;27;20239;-64
2023/05/09 05:48:24;;;;;;;9.87;7.77;;;18.20;87.90;;;;;;5118465;27;20259;-64
2023/05/09 05:50:52;;;;;;;8.63;7.83;;;18.30;86.60;;;;;;5115847;27;20199;-64
2023/05/09 05:53:23;;;;;;;9.47;7.87;;;18.40;85.40;;;;;;5112928;27;20560;-64
2023/05/09 05:55:50;;;;;;;9.90;8.03;;;18.40;85.30;;;;;;5099810;27;20307;-63
2023/05/09 05:58:17;;;;;;;8.93;8.03;;;18.50;85.40;;;;;;5113824;27;20290;-63
2023/05/09 06:00:45;;;;;;;8.33;7.53;;;18.50;85.70;;;;;;5118271;27;20263;-64
2023/05/09 06:03:13;;;;;;;9.73;8.20;;;18.60;86.00;;;;;;5113664;27;20207;-63
2023/05/09 06:05:51;;;;;;;10.90;8.87;;;18.70;85.40;;;;;;5118876;27;20222;-64
2023/05/09 06:08:18;;;;;;;9.93;8.20;;;18.80;84.70;;;;;;5125397;27;20226;-63
2023/05/09 06:10:45;;;;;;;10.63;8.27;;;18.70;84.30;;;;;;5119557;27;20263;-63
2023/05/09 06:13:12;;;;;;;8.83;8.03;;;18.70;84.40;;;;;;5120498;27;20202;-63
2023/05/09 06:15:43;;;;;;;11.10;8.63;;;18.70;84.80;;;;;;5117077;27;20256;-63
2023/05/09 06:18:10;;;;;;;9.53;8.53;;;18.70;84.90;;;;;;5131112;27;20223;-63
2023/05/09 06:20:37;;;;;;;11.63;8.70;;;18.70;84.90;;;;;;5116382;27;20207;-63
2023/05/09 06:23:04;;;;;;;10.10;9.10;;;18.70;84.90;;;;;;5121799;27;20290;-63
2023/05/09 06:25:31;;;;;;;9.43;8.53;;;18.80;85.20;;;;;;5116309;27;20264;-63
2023/05/09 06:27:58;;;;;;;9.37;8.20;;;18.80;85.00;;;;;;5115567;27;20211;-63
2023/05/09 06:30:25;;;;;;;9.33;7.83;;;18.80;85.00;;;;;;5113278;27;20205;-64
2023/05/09 06:32:54;;;;;;;9.77;8.57;;;18.80;85.60;;;;;;5109296;27;20720;-64
2023/05/09 06:35:21;;;;;;;10.93;8.73;;;18.80;84.40;;;;;;5110417;27;20203;-64
2023/05/09 06:37:48;;;;;;;10.07;8.40;;;18.80;84.70;;;;;;5111913;27;20199;-64
2023/05/09 06:40:16;;;;;;;8.70;7.80;;;18.80;85.10;;;;;;5111041;27;20286;-64
2023/05/09 06:42:44;;;;;;;11.23;7.67;;;18.90;85.40;;;;;;5117316;27;20263;-64
2023/05/09 06:45:11;;;;;;;11.40;8.27;;;19.00;85.40;;;;;;5115904;27;20287;-64
2023/05/09 06:47:38;;;;;;;13.43;8.20;;;19.00;85.20;;;;;;5116323;27;20246;-64
2023/05/09 06:50:06;;;;;;;12.10;8.30;;;19.10;85.10;;;;;;5116546;27;20208;-64
2023/05/09 06:52:33;;;;;;;10.43;8.50;;;19.20;84.20;;;;;;5113151;27;20513;-63
2023/05/09 06:55:00;;;;;;;11.00;9.70;;;19.30;83.70;;;;;;5118846;27;20234;-64
2023/05/09 06:57:27;;;;;;;10.03;8.83;;;19.30;84.00;;;;;;5114728;27;20286;-64
2023/05/09 06:59:54;;;;;;;9.40;8.50;;;19.40;83.90;;;;;;5110531;27;20272;-64
2023/05/09 07:02:21;;;;;;;11.17;9.23;;;19.40;83.80;;;;;;5110720;27;20200;-64
2023/05/09 07:04:48;;;;;;;11.17;9.80;;;19.40;84.00;;;;;;5118856;27;20206;-64
2023/05/09 07:07:16;;;;;;;10.63;9.50;;;19.50;84.20;;;;;;5121225;27;20245;-64
2023/05/09 07:09:43;;;;;;;10.97;8.73;;;19.50;83.50;;;;;;5123564;27;20309;-64
2023/05/09 07:12:10;;;;;;;15.07;10.57;;;19.60;83.50;;;;;;5117871;27;20199;-64
2023/05/09 07:14:37;;;;;;;11.20;10.07;;;19.60;83.40;;;;;;5119287;27;20287;-64
2023/05/09 07:17:04;;;;;;;10.90;9.80;;;19.60;83.50;;;;;;5112597;27;20546;-64
2023/05/09 07:19:48;;;;;;;11.53;9.80;;;19.60;83.50;;;;;;5121757;27;20195;-64
2023/05/09 07:22:15;;;;;;;11.63;9.73;;;19.70;83.20;;;;;;5115780;27;20207;-64
2023/05/09 07:24:43;;;;;;;11.83;9.30;;;19.70;82.70;;;;;;5117937;27;20602;-64
2023/05/09 07:27:10;;;;;;;11.03;9.67;;;19.70;82.90;;;;;;5118559;27;20299;-64
2023/05/09 07:29:37;;;;;;;10.10;9.10;;;19.70;82.80;;;;;;5116494;27;20230;-64
2023/05/09 07:32:04;;;;;;;10.80;9.57;;;19.70;83.20;;;;;;5119450;27;20193;-64
2023/05/09 07:34:31;;;;;;;11.77;9.30;;;19.80;83.80;;;;;;5117433;27;20200;-63
2023/05/09 07:36:58;;;;;;;10.87;9.67;;;19.80;83.90;;;;;;5117155;27;20212;-64
2023/05/09 07:39:25;;;;;;;9.57;8.57;;;19.90;84.10;;;;;;5115237;27;20641;-64
2023/05/09 07:41:52;;;;;;;13.30;9.40;;;20.00;83.80;;;;;;5114114;27;20287;-64
2023/05/09 07:44:19;;;;;;;10.70;9.60;;;20.10;83.70;;;;;;5112643;27;20193;-64
2023/05/09 07:46:46;;;;;;;12.63;9.33;;;20.20;82.20;;;;;;5115620;27;20229;-63
2023/05/09 07:49:13;;;;;;;10.57;9.00;;;20.30;82.40;;;;;;5117839;27;20223;-63
2023/05/09 07:51:40;;;;;;;11.77;8.93;;;20.30;81.60;;;;;;5115563;27;20218;-64
2023/05/09 07:54:08;;;;;;;11.23;9.83;;;20.40;81.90;;;;;;5115896;27;20634;-64
2023/05/09 07:56:35;;;;;;;9.37;8.33;;;20.50;81.90;;;;;;5111364;28;20184;-64
2023/05/09 07:59:02;;;;;;;9.43;8.50;;;20.60;81.80;;;;;;5116064;27;20628;-64
2023/05/09 08:01:29;;;;;;;14.90;9.40;;;20.70;82.00;;;;;;5118111;28;20196;-63
2023/05/09 08:03:56;;;;;;;10.43;7.43;;;20.80;82.20;;;;;;5112865;28;20189;-63
2023/05/09 08:06:25;;;;;;;10.70;8.03;;;20.90;81.70;;;;;;5112889;28;20242;-63
2023/05/09 08:08:52;;;;;;;9.40;7.30;;;21.00;80.80;;;;;;5112310;28;20650;-64
2023/05/09 08:11:19;;;;;;;8.10;7.00;;;21.00;80.60;;;;;;5117590;28;20191;-64
2023/05/09 08:13:47;;;;;;;8.27;6.93;;;21.10;80.80;;;;;;5113625;28;20648;-64
2023/05/09 08:16:16;;;;;;;9.37;7.50;;;21.10;80.40;;;;;;5111664;28;20626;-64
2023/05/09 08:18:43;;;;;;;9.50;7.00;;;21.10;80.40;;;;;;5114766;28;20281;-64
2023/05/09 08:21:10;;;;;;;9.03;7.13;;;21.10;80.70;;;;;;5110233;28;20234;-64
2023/05/09 08:23:37;;;;;;;10.80;7.43;;;21.10;80.80;;;;;;5114500;28;20265;-64
2023/05/09 08:26:04;;;;;;;11.83;7.70;;;21.10;80.40;;;;;;5122272;27;20210;-64
2023/05/09 08:28:31;;;;;;;9.50;7.40;;;21.10;80.20;;;;;;5113713;28;20203;-64
2023/05/09 08:30:58;;;;;;;11.63;7.83;;;21.20;79.90;;;;;;5115108;28;20627;-64
2023/05/09 08:33:25;;;;;;;11.93;7.93;;;21.20;80.40;;;;;;5112202;27;20684;-63
2023/05/09 08:35:53;;;;;;;13.40;8.40;;;21.30;80.30;;;;;;5121209;28;20226;-63
2023/05/09 08:38:21;;;;;;;11.80;9.10;;;21.30;79.90;;;;;;5112064;27;20636;-63
2023/05/09 08:40:48;;;;;;;12.27;8.40;;;21.30;80.20;;;;;;5109111;28;20208;-64
2023/05/09 08:43:18;;;;;;;11.83;9.70;;;21.40;79.60;;;;;;5110555;28;20254;-64
2023/05/09 08:45:49;;;;;;;12.97;9.30;;;21.30;80.30;;;;;;5112388;28;20292;-63
2023/05/09 08:48:17;;;;;;;10.57;9.17;;;21.40;80.40;;;;;;5112741;28;20634;-64
2023/05/09 08:50:44;;;;;;;11.83;9.00;;;21.40;80.10;;;;;;5111802;28;20645;-64
2023/05/09 08:53:12;;;;;;;15.63;10.00;;;21.50;80.20;;;;;;5111390;28;20254;-64
2023/05/09 08:55:39;;;;;;;14.10;8.73;;;21.50;79.60;;;;;;5115597;28;20216;-63
2023/05/09 08:58:08;;;;;;;10.53;9.50;;;21.60;79.20;;;;;;5114458;27;20520;-64
2023/05/09 09:00:37;;;;;;;11.60;9.43;;;21.50;79.30;;;;;;5122815;27;20200;-64
2023/05/09 09:03:06;;;;;;;10.77;9.27;;;21.60;79.40;;;;;;5121669;27;20189;-63
2023/05/09 09:05:36;;;;;;;9.77;8.03;;;21.60;78.40;;;;;;5121991;27;20223;-64
2023/05/09 09:08:09;;;;;;;10.60;7.47;;;21.70;78.90;;;;;;5121967;27;20282;-64
2023/05/09 09:10:41;;;;;;;9.73;7.27;;;21.70;77.70;;;;;;5111913;27;20711;-64
2023/05/09 09:13:11;;;;;;;11.00;7.83;;;21.80;78.80;;;;;;5120165;27;20243;-64
2023/05/09 09:15:40;;;;;;;8.67;7.80;;;22.00;78.80;;;;;;5118145;27;20204;-64
2023/05/09 09:18:10;;;;;;;7.93;7.13;;;22.10;77.90;;;;;;5117893;27;20243;-63
2023/05/09 09:20:45;;;;;;;8.13;6.70;;;22.20;77.80;;;;;;5115524;27;20208;-64
2023/05/09 09:23:18;;;;;;;11.13;7.33;;;22.40;78.10;;;;;;5113812;27;20192;-63
2023/05/09 09:25:46;;;;;;;10.67;7.00;;;22.50;76.70;;;;;;5113665;27;20196;-63
2023/05/09 09:28:13;;;;;;;7.60;6.57;;;22.50;75.60;;;;;;5120115;27;20235;-63
2023/05/09 09:30:47;;;;;;;9.50;7.37;;;22.40;74.20;;;;;;5115609;27;20220;-63
2023/05/09 09:33:21;;;;;;;11.50;6.93;;;22.40;75.60;;;;;;5119468;27;20209;-64
2023/05/09 09:35:50;;;;;;;8.07;6.53;;;22.30;75.80;;;;;;5121932;27;20211;-64
2023/05/09 09:38:18;;;;;;;7.37;6.57;;;22.30;75.90;;;;;;5118803;27;20199;-64
2023/05/09 09:40:56;;;;;;;8.87;6.37;;;22.40;76.70;;;;;;5120026;27;20592;-64
2023/05/09 09:43:28;;;;;;;8.77;6.30;;;22.40;76.00;;;;;;5117174;27;20192;-64
2023/05/09 09:45:56;;;;;;;8.30;6.00;;;22.40;76.00;;;;;;5110624;27;21685;-64
2023/05/09 09:48:31;;;;;;;8.03;6.13;;;22.50;75.20;;;;;;5123169;27;20983;-64
2023/05/09 09:51:08;;;;;;;6.10;5.37;;;22.50;76.00;;;;;;5110245;27;20235;-64
2023/05/09 09:53:40;;;;;;;10.23;6.17;;;22.60;74.00;;;;;;5128038;27;20202;-64
2023/05/09 09:56:07;;;;;;;6.00;5.17;;;22.60;75.00;;;;;;5122497;27;20704;-63
2023/05/09 09:58:35;;;;;;;10.37;5.10;;;22.60;74.10;;;;;;5122782;27;20318;-64
2023/05/09 10:01:07;;;;;;;7.20;5.80;;;22.60;74.80;;;;;;5114735;27;20205;-64
2023/05/09 10:03:36;;;;;;;8.20;5.43;;;22.70;75.20;;;;;;5124066;27;20196;-64
2023/05/09 10:06:03;;;;;;;9.07;5.63;;;22.80;75.20;;;;;;5118325;27;20212;-64
2023/05/09 10:08:30;;;;;;;12.17;6.17;;;22.90;74.40;;;;;;5116036;27;20201;-64
2023/05/09 10:10:58;;;;;;;7.67;5.80;;;22.90;72.90;;;;;;5119535;27;20281;-64
2023/05/09 10:13:27;;;;;;;9.77;6.43;;;22.90;73.70;;;;;;5114204;27;20518;-64
2023/05/09 10:15:56;;;;;;;10.73;5.70;;;23.00;73.90;;;;;;5115531;27;20292;-64
2023/05/09 10:18:28;;;;;;;6.33;5.67;;;23.10;73.30;;;;;;5112848;27;20200;-64
2023/05/09 10:21:02;;;;;;;6.07;5.20;;;23.10;72.80;;;;;;5122239;27;20210;-63
2023/05/09 10:23:31;;;;;;;7.10;5.47;;;23.20;72.50;;;;;;5119524;27;20253;-64
2023/05/09 10:26:17;;;;;;;9.53;6.80;;;23.10;72.20;;;;;;5119318;27;20196;-64
2023/05/09 10:28:46;;;;;;;8.23;6.03;;;23.10;72.70;;;;;;5117338;27;20203;-64
2023/05/09 10:31:27;;;;;;;8.37;5.40;;;23.20;72.50;;;;;;5114230;27;20731;-64
2023/05/09 10:33:55;;;;;;;6.17;4.97;;;23.20;72.20;;;;;;5120658;27;20226;-64
2023/05/09 10:36:25;;;;;;;8.07;6.83;;;23.30;73.00;;;;;;5116000;27;20240;-64
2023/05/09 10:38:54;;;;;;;8.93;4.97;;;23.60;73.50;;;;;;5109275;27;20197;-64
2023/05/09 10:41:21;;;;;;;4.90;4.37;;;24.00;71.00;;;;;;5120719;27;20241;-64
2023/05/09 10:43:48;;;;;;;6.67;4.40;;;24.00;68.00;;;;;;5116216;27;20228;-64
2023/05/09 10:46:16;;;;;;;9.43;6.10;;;23.90;68.80;;;;;;5115957;27;20235;-64
2023/05/09 10:48:44;;;;;;;7.43;6.70;;;24.00;69.70;;;;;;5115431;27;20237;-64
2023/05/09 10:51:12;;;;;;;10.07;7.07;;;24.10;69.90;;;;;;5112971;27;20262;-64
2023/05/09 10:53:44;;;;;;;7.43;5.53;;;24.30;70.50;;;;;;5117226;27;20200;-64
2023/05/09 10:56:34;;;;;;;10.13;5.27;;;24.60;70.00;;;;;;5113477;27;20238;-63
2023/05/09 10:59:01;;;;;;;12.20;6.17;;;24.80;68.60;;;;;;5115281;27;20208;-64
2023/05/09 11:01:38;;;;;;;7.10;6.20;;;24.90;67.50;;;;;;5118458;27;20231;-64
2023/05/09 11:04:13;;;;;;;10.00;5.37;;;25.00;66.90;;;;;;5114008;27;20203;-64
2023/05/09 11:06:41;;;;;;;6.23;4.90;;;24.90;66.30;;;;;;5116399;27;20199;-64
2023/05/09 11:09:31;;;;;;;6.50;5.40;;;24.80;66.60;;;;;;5113006;27;20283;-64
2023/05/09 11:12:08;;;;;;;7.70;6.97;;;24.50;67.20;;;;;;5108164;27;20213;-64
2023/05/09 11:14:45;;;;;;;7.37;6.53;;;24.40;68.40;;;;;;5121701;27;20204;-64
2023/05/09 11:17:21;;;;;;;5.93;5.33;;;24.50;69.70;;;;;;5120468;27;20205;-64
2023/05/09 11:19:49;;;;;;;9.13;6.30;;;24.60;70.10;;;;;;5119432;27;20240;-64
2023/05/09 11:22:23;;;;;;;7.20;6.50;;;24.70;66.50;;;;;;5117222;27;20604;-64
2023/05/09 11:24:58;;;;;;;8.53;6.93;;;24.60;65.90;;;;;;5115971;27;20215;-64
2023/05/09 11:27:27;;;;;;;12.70;6.90;;;24.30;66.10;;;;;;5114241;27;20215;-64
2023/05/09 11:29:56;;;;;;;7.63;6.10;;;24.20;67.70;;;;;;5111585;27;20316;-64
2023/05/09 11:32:44;;;;;;;9.13;6.43;;;24.00;68.90;;;;;;5113687;27;20196;-64
2023/05/09 11:35:14;;;;;;;7.97;7.10;;;24.00;69.20;;;;;;5116283;27;20646;-64
2023/05/09 11:38:01;;;;;;;11.83;7.20;;;23.90;70.00;;;;;;5107782;27;20279;-64
2023/05/09 11:40:30;;;;;;;9.97;6.27;;;23.90;70.90;;;;;;5109239;27;20205;-64
2023/05/09 11:42:58;;;;;;;11.50;6.23;;;24.00;70.70;;;;;;5111743;27;20220;-64
2023/05/09 11:45:30;;;;;;;6.73;5.47;;;24.10;70.00;;;;;;5110586;27;20205;-64
2023/05/09 11:47:58;;;;;;;7.60;5.97;;;24.20;69.70;;;;;;5115732;27;20200;-64
2023/05/09 11:50:25;;;;;;;6.87;5.40;;;24.60;68.40;;;;;;5123003;27;20299;-64
2023/05/09 11:52:52;;;;;;;6.67;6.07;;;24.90;68.10;;;;;;5115242;27;20192;-64
2023/05/09 11:55:28;;;;;;;12.73;5.77;;;25.00;66.80;;;;;;5112364;27;20196;-64
2023/05/09 11:57:57;;;;;;;7.40;5.60;;;25.10;67.20;;;;;;5119959;27;20187;-64
2023/05/09 12:00:25;;;;;;;5.90;4.67;;;25.10;67.10;;;;;;5115695;27;20214;-64
2023/05/09 12:02:52;;;;;;;8.40;5.07;;;25.20;68.20;;;;;;5114955;27;20199;-64
2023/05/09 12:05:21;;;;;;;7.07;6.37;;;25.50;68.60;;;;;;5115278;28;20626;-64
2023/05/09 12:07:49;;;;;;;7.73;4.80;;;26.00;67.60;;;;;;5113628;28;20205;-63
2023/05/09 12:10:19;;;;;;;6.53;4.80;;;26.30;66.60;;;;;;5110808;28;20687;-64
2023/05/09 12:12:51;;;;;;;7.33;5.27;;;26.60;64.70;;;;;;5111147;28;20282;-64
2023/05/09 12:15:20;;;;;;;7.47;4.70;;;26.90;65.10;;;;;;5112328;28;20205;-64
2023/05/09 12:18:03;;;;;;;7.27;4.50;;;27.10;64.00;;;;;;5107338;28;20193;-64
2023/05/09 12:20:46;;;;;;;9.77;5.53;;;27.30;64.20;;;;;;5109121;28;20200;-64
2023/05/09 12:23:13;;;;;;;7.90;5.73;;;27.40;63.30;;;;;;5113460;28;20207;-64
2023/05/09 12:26:07;;;;;;;9.27;6.70;;;27.30;62.60;;;;;;5112612;28;20200;-64
2023/05/09 12:28:35;;;;;;;12.17;5.33;;;27.20;63.30;;;;;;5112641;28;20219;-64
2023/05/09 12:31:03;;;;;;;7.17;5.20;;;27.10;64.40;;;;;;5119783;28;20223;-64
2023/05/09 12:33:30;;;;;;;8.20;5.30;;;27.20;63.30;;;;;;5120843;27;20196;-64
2023/05/09 12:36:06;;;;;;;6.63;6.00;;;27.20;62.30;;;;;;5122723;27;20257;-64
2023/05/09 12:38:33;;;;;;;7.57;6.50;;;27.20;61.90;;;;;;5126899;27;20191;-64
2023/05/09 12:41:08;;;;;;;8.87;6.73;;;27.20;62.20;;;;;;5123092;27;20227;-64
2023/05/09 12:43:55;;;;;;;7.67;6.83;;;27.30;61.40;;;;;;5120184;27;20199;-64
2023/05/09 12:46:22;;;;;;;7.73;6.97;;;27.00;61.50;;;;;;5121155;27;20706;-64
2023/05/09 12:48:50;;;;;;;6.80;5.60;;;26.60;62.70;;;;;;5123681;27;20239;-64
2023/05/09 12:51:21;;;;;;;10.87;7.50;;;26.30;63.70;;;;;;5117226;27;20286;-64
2023/05/09 12:53:48;;;;;;;8.10;7.30;;;26.20;63.80;;;;;;5123765;27;20204;-64